createdAt,value
2022-08-11T00:01:36.710Z,99644.88
2022-08-11T00:04:39.874Z,99641.97
2022-08-11T00:07:56.222Z,99651.09
2022-08-11T00:11:02.557Z,99638.44
2022-08-11T00:14:12.948Z,99641.53
2022-08-11T00:17:17.131Z,99646.50
2022-08-11T00:20:20.076Z,99646.50
2022-08-11T00:23:22.188Z,99638.84
2022-08-11T00:26:26.896Z,99637.38
2022-08-11T00:29:29.329Z,99636.75
2022-08-11T00:32:31.772Z,99644.84
2022-08-11T00:35:51.815Z,99648.53
2022-08-11T00:39:04.487Z,99644.19
2022-08-11T00:42:26.472Z,99647.31
2022-08-11T00:46:05.478Z,99643.38
2022-08-11T00:49:07.137Z,99643.13
2022-08-11T00:52:33.790Z,99636.25
2022-08-11T00:56:09.638Z,99641.84
2022-08-11T00:59:35.012Z,99638.06
2022-08-11T01:03:14.473Z,99637.81
2022-08-11T01:06:38.446Z,99631.16
2022-08-11T01:09:53.625Z,99631.50
2022-08-11T01:13:17.081Z,99637.09
2022-08-11T01:16:43.243Z,99628.78
2022-08-11T01:20:45.325Z,99625.03
2022-08-11T01:23:24.878Z,99628.31
2022-08-11T01:27:19.151Z,99626.81
2022-08-11T01:30:56.611Z,99623.28
2022-08-11T01:34:23.044Z,99627.38
2022-08-11T01:37:52.967Z,99632.25
2022-08-11T01:41:52.147Z,99626.25
2022-08-11T01:45:03.498Z,99631.56
2022-08-11T01:48:15.808Z,99639.84
2022-08-11T01:51:43.245Z,99628.06
2022-08-11T01:55:02.023Z,99624.75
2022-08-11T01:58:44.182Z,99615.41
2022-08-11T02:02:04.158Z,99617.47
2022-08-11T02:05:41.287Z,99623.00
2022-08-11T02:08:51.389Z,99618.88
2022-08-11T02:11:59.811Z,99615.75
2022-08-11T02:15:10.090Z,99617.16
2022-08-11T02:18:52.903Z,99617.56
2022-08-11T02:22:20.500Z,99621.63
2022-08-11T02:25:31.291Z,99611.19
2022-08-11T02:28:57.463Z,99609.47
2022-08-11T02:32:36.299Z,99611.06
2022-08-11T02:35:51.649Z,99611.72
2022-08-11T02:39:09.750Z,99614.78
2022-08-11T02:42:35.486Z,99609.81
2022-08-11T02:45:46.301Z,99618.44
2022-08-11T02:49:17.951Z,99610.75
2022-08-11T02:52:45.463Z,99613.56
2022-08-11T02:56:03.335Z,99606.72
2022-08-11T02:59:43.788Z,99607.69
2022-08-11T03:02:51.693Z,99608.44
2022-08-11T03:06:00.290Z,99613.19
2022-08-11T03:09:17.867Z,99620.75
2022-08-11T03:12:53.447Z,99618.81
2022-08-11T03:16:42.928Z,99615.69
2022-08-11T03:20:00.209Z,99624.13
2022-08-11T03:23:30.052Z,99622.63
2022-08-11T03:26:47.415Z,99615.81
2022-08-11T03:30:04.786Z,99625.53
2022-08-11T03:33:41.666Z,99620.66
2022-08-11T03:37:34.370Z,99622.88
2022-08-11T03:42:01.855Z,99620.75
2022-08-11T03:45:41.643Z,99626.41
2022-08-11T03:49:11.927Z,99626.59
2022-08-11T03:52:23.394Z,99620.88
2022-08-11T03:55:34.731Z,99625.28
2022-08-11T03:58:57.744Z,99628.03
2022-08-11T04:02:18.407Z,99617.41
2022-08-11T04:05:58.808Z,99625.47
2022-08-11T04:09:13.276Z,99618.03
2022-08-11T04:12:35.892Z,99621.44
2022-08-11T04:16:12.887Z,99626.13
2022-08-11T04:19:42.614Z,99620.91
2022-08-11T04:23:03.418Z,99624.94
2022-08-11T04:26:20.254Z,99626.84
2022-08-11T04:30:03.961Z,99629.94
2022-08-11T04:33:38.247Z,99627.06
2022-08-11T04:37:25.803Z,99620.16
2022-08-11T04:40:30.254Z,99617.22
2022-08-11T04:44:04.587Z,99624.44
2022-08-11T04:48:12.451Z,99625.78
2022-08-11T04:51:58.361Z,99624.56
2022-08-11T04:55:21.762Z,99627.06
2022-08-11T04:58:54.595Z,99626.19
2022-08-11T05:02:35.588Z,99625.34
2022-08-11T05:06:14.732Z,99629.91
2022-08-11T05:09:25.311Z,99637.38
2022-08-11T05:12:36.435Z,99635.28
2022-08-11T05:16:08.158Z,99641.50
2022-08-11T05:19:35.434Z,99627.84
2022-08-11T05:23:02.277Z,99629.31
2022-08-11T05:26:46.974Z,99633.88
2022-08-11T05:30:16.429Z,99629.94
2022-08-11T05:33:44.157Z,99637.19
2022-08-11T05:36:50.848Z,99637.31
2022-08-11T05:40:18.618Z,99636.47
2022-08-11T05:44:20.329Z,99642.22
2022-08-11T05:47:23.367Z,99636.31
2022-08-11T05:50:44.629Z,99631.63
2022-08-11T05:54:28.962Z,99637.38
2022-08-11T05:57:49.927Z,99638.91
2022-08-11T06:00:54.104Z,99629.16
2022-08-11T06:04:17.259Z,99629.47
2022-08-11T06:07:27.082Z,99632.03
2022-08-11T06:10:47.796Z,99635.81
2022-08-11T06:13:50.447Z,99628.19
2022-08-11T06:16:56.558Z,99630.00
2022-08-11T06:20:09.677Z,99638.09
2022-08-11T06:23:11.943Z,99637.31
2022-08-11T06:26:15.618Z,99634.25
2022-08-11T06:29:18.842Z,99634.16
2022-08-11T06:32:25.390Z,99637.16
2022-08-11T06:35:48.314Z,99639.88
2022-08-11T06:39:10.102Z,99635.84
2022-08-11T06:42:24.955Z,99634.59
2022-08-11T06:45:28.490Z,99638.75
2022-08-11T06:48:33.088Z,99634.56
2022-08-11T06:51:38.465Z,99629.81
2022-08-11T06:55:04.274Z,99630.28
2022-08-11T06:58:25.546Z,99629.28
2022-08-11T07:01:46.352Z,99621.31
2022-08-11T07:05:11.636Z,99620.63
2022-08-11T07:08:56.697Z,99616.75
2022-08-11T07:12:36.180Z,99614.81
2022-08-11T07:16:10.819Z,99618.84
2022-08-11T07:19:27.257Z,99617.09
2022-08-11T07:23:07.748Z,99613.06
2022-08-11T07:26:30.829Z,99611.06
2022-08-11T07:29:33.038Z,99613.06
2022-08-11T07:32:53.714Z,99608.22
2022-08-11T07:36:00.138Z,99605.31
2022-08-11T07:39:03.163Z,99614.97
2022-08-11T07:42:10.648Z,99604.94
2022-08-11T07:45:32.035Z,99610.56
2022-08-11T07:48:53.114Z,99600.06
2022-08-11T07:52:14.678Z,99599.16
2022-08-11T07:55:18.194Z,99602.47
2022-08-11T07:58:45.374Z,99596.84
2022-08-11T08:02:13.411Z,99598.34
2022-08-11T08:05:36.714Z,99597.03
2022-08-11T08:08:59.839Z,99585.97
2022-08-11T08:12:23.912Z,99580.13
2022-08-11T08:15:44.428Z,99578.06
2022-08-11T08:18:46.702Z,99585.81
2022-08-11T08:21:49.280Z,99567.66
2022-08-11T08:24:52.341Z,99574.69
2022-08-11T08:27:56.477Z,99582.31
2022-08-11T08:30:58.581Z,99569.63
2022-08-11T08:34:01.311Z,99563.41
2022-08-11T08:37:16.199Z,99572.44
2022-08-11T08:40:27.878Z,99567.28
2022-08-11T08:43:32.592Z,99563.03
2022-08-11T08:46:59.140Z,99560.66
2022-08-11T08:50:05.630Z,99560.59
2022-08-11T08:53:09.082Z,99559.69
2022-08-11T08:56:11.710Z,99561.06
2022-08-11T08:59:15.866Z,99555.38
2022-08-11T09:02:33.979Z,99551.97
2022-08-11T09:05:37.646Z,99546.47
2022-08-11T09:08:40.908Z,99552.25
2022-08-11T09:11:51.222Z,99557.50
2022-08-11T09:15:03.629Z,99543.81
2022-08-11T09:18:09.790Z,99541.94
2022-08-11T09:21:39.229Z,99537.03
2022-08-11T09:24:57.694Z,99541.97
2022-08-11T09:27:59.941Z,99537.63
2022-08-11T09:31:02.549Z,99533.75
2022-08-11T09:34:04.378Z,99526.38
2022-08-11T09:37:28.642Z,99529.13
2022-08-11T09:40:52.702Z,99524.13
2022-08-11T09:44:19.333Z,99519.09
2022-08-11T09:47:24.468Z,99518.13
2022-08-11T09:50:26.787Z,99511.03
2022-08-11T09:53:38.158Z,99507.03
2022-08-11T09:57:05.291Z,99505.66
2022-08-11T10:00:13.149Z,99505.00
2022-08-11T10:03:22.200Z,99505.28
2022-08-11T10:06:44.404Z,99506.63
2022-08-11T10:09:58.982Z,99497.34
2022-08-11T10:13:05.510Z,99500.97
2022-08-11T10:16:30.071Z,99492.66
2022-08-11T10:19:33.836Z,99481.88
2022-08-11T10:22:54.805Z,99487.19
2022-08-11T10:26:16.101Z,99483.50
2022-08-11T10:29:37.684Z,99486.38
2022-08-11T10:33:09.701Z,99477.34
2022-08-11T10:36:16.869Z,99485.69
2022-08-11T10:39:21.497Z,99488.56
2022-08-11T10:42:57.427Z,99488.75
2022-08-11T10:46:35.349Z,99486.63
2022-08-11T10:49:37.623Z,99478.72
2022-08-11T10:52:59.873Z,99470.38
2022-08-11T10:56:22.241Z,99471.06
2022-08-11T10:59:28.149Z,99460.94
2022-08-11T11:02:30.167Z,99449.06
2022-08-11T11:05:32.866Z,99452.16
2022-08-11T11:08:57.702Z,99453.56
2022-08-11T11:12:42.520Z,99455.03
2022-08-11T11:16:05.267Z,99454.38
2022-08-11T11:19:08.909Z,99441.34
2022-08-11T11:22:33.894Z,99436.56
2022-08-11T11:26:06.456Z,99429.25
2022-08-11T11:29:37.847Z,99429.72
2022-08-11T11:34:06.499Z,99436.50
2022-08-11T11:37:12.386Z,99422.44
2022-08-11T11:40:17.514Z,99418.75
2022-08-11T11:43:19.508Z,99418.06
2022-08-11T11:46:21.865Z,99414.84
2022-08-11T11:49:27.259Z,99415.09
2022-08-11T11:52:29.806Z,99406.69
2022-08-11T11:55:32.099Z,99395.91
2022-08-11T11:58:52.995Z,99402.81
2022-08-11T12:01:56.261Z,99403.56
2022-08-11T12:04:58.421Z,99400.88
2022-08-11T12:08:18.122Z,99399.81
2022-08-11T12:11:40.566Z,99399.56
2022-08-11T12:14:45.328Z,99389.72
2022-08-11T12:17:52.423Z,99384.88
2022-08-11T12:20:54.661Z,99382.13
2022-08-11T12:24:16.512Z,99379.47
2022-08-11T12:27:25.045Z,99377.50
2022-08-11T12:30:28.235Z,99375.13
2022-08-11T12:33:30.104Z,99374.91
2022-08-11T12:36:43.471Z,99360.81
2022-08-11T12:40:16.400Z,99358.63
2022-08-11T12:43:56.885Z,99354.78
2022-08-11T12:47:01.969Z,99351.41
2022-08-11T12:50:23.659Z,99342.91
2022-08-11T12:53:29.942Z,99342.00
2022-08-11T12:57:06.405Z,99346.22
2022-08-11T13:00:28.478Z,99349.34
2022-08-11T13:03:56.675Z,99342.81
2022-08-11T13:06:59.215Z,99338.00
2022-08-11T13:10:05.551Z,99337.19
2022-08-11T13:13:54.418Z,99341.03
2022-08-11T13:16:55.931Z,99332.34
2022-08-11T13:19:59.447Z,99337.75
2022-08-11T13:23:01.975Z,99331.72
2022-08-11T13:26:06.551Z,99327.34
2022-08-11T13:29:09.568Z,99324.84
2022-08-11T13:32:13.653Z,99328.75
2022-08-11T13:35:18.966Z,99305.50
2022-08-11T13:38:22.195Z,99317.22
2022-08-11T13:41:39.454Z,99313.78
2022-08-11T13:44:42.568Z,99305.03
2022-08-11T13:47:45.611Z,99312.06
2022-08-11T13:51:06.707Z,99316.91
2022-08-11T13:54:20.234Z,99313.69
2022-08-11T13:58:18.289Z,99318.25
2022-08-11T14:00:52.746Z,99304.75
2022-08-11T14:04:29.760Z,99301.34
2022-08-11T14:07:24.430Z,99294.41
2022-08-11T14:10:29.562Z,99294.00
2022-08-11T14:13:41.220Z,99286.56
2022-08-11T14:16:45.483Z,99292.72
2022-08-11T14:19:52.255Z,99289.31
2022-08-11T14:22:54.216Z,99288.41
2022-08-11T14:26:15.653Z,99279.03
2022-08-11T14:32:27.702Z,99282.84
2022-08-11T14:35:29.578Z,99285.78
2022-08-11T14:38:35.563Z,99282.50
2022-08-11T14:42:10.220Z,99287.72
2022-08-11T14:45:57.938Z,99287.69
2022-08-11T14:48:58.027Z,99287.75
2022-08-11T14:52:00.167Z,99284.00
2022-08-11T14:55:21.024Z,99281.00
2022-08-11T14:58:25.651Z,99275.16
2022-08-11T15:01:46.351Z,99273.41
2022-08-11T15:04:48.469Z,99260.75
2022-08-11T15:07:51.576Z,99262.81
2022-08-11T15:10:53.418Z,99259.06
2022-08-11T15:13:56.698Z,99257.81
2022-08-11T15:17:11.696Z,99250.81
2022-08-11T15:20:35.692Z,99254.97
2022-08-11T15:23:58.280Z,99245.63
2022-08-11T15:27:20.147Z,99247.22
2022-08-11T15:30:42.767Z,99238.72
2022-08-11T15:34:04.564Z,99252.44
2022-08-11T15:37:26.800Z,99248.91
2022-08-11T15:40:52.401Z,99244.25
2022-08-11T15:44:15.245Z,99247.47
2022-08-11T15:47:19.834Z,99236.72
2022-08-11T15:50:21.908Z,99238.38
2022-08-11T15:53:34.771Z,99231.38
2022-08-11T15:56:41.207Z,99230.50
2022-08-11T16:00:01.599Z,99226.19
2022-08-11T16:04:05.698Z,99227.66
2022-08-11T16:07:06.030Z,99230.09
2022-08-11T16:10:14.018Z,99218.22
2022-08-11T16:13:22.532Z,99205.97
2022-08-11T16:16:24.899Z,99208.66
2022-08-11T16:19:35.123Z,99202.47
2022-08-11T16:22:57.218Z,99201.16
2022-08-11T16:27:08.361Z,99206.66
2022-08-11T16:29:31.389Z,99205.53
2022-08-11T16:32:36.453Z,99200.38
2022-08-11T16:35:59.048Z,99213.47
2022-08-11T16:39:03.318Z,99215.97
2022-08-11T16:43:09.848Z,99210.50
2022-08-11T16:46:04.805Z,99210.78
2022-08-11T16:49:12.251Z,99211.03
2022-08-11T16:52:14.880Z,99206.69
2022-08-11T16:55:51.685Z,99211.59
2022-08-11T16:58:58.175Z,99220.06
2022-08-11T17:02:08.987Z,99211.81
2022-08-11T17:05:38.147Z,99208.81
2022-08-11T17:09:07.633Z,99210.91
2022-08-11T17:12:29.818Z,99208.47
2022-08-11T17:16:01.293Z,99220.16
2022-08-11T17:19:08.920Z,99219.63
2022-08-11T17:22:29.037Z,99216.06
2022-08-11T17:25:59.349Z,99213.41
2022-08-11T17:29:01.103Z,99214.38
2022-08-11T17:32:24.776Z,99215.25
2022-08-11T17:35:32.902Z,99227.06
2022-08-11T17:38:36.638Z,99215.78
2022-08-11T17:41:58.391Z,99217.63
2022-08-11T17:45:21.538Z,99224.34
2022-08-11T17:48:27.963Z,99223.19
2022-08-11T17:51:49.950Z,99228.81
2022-08-11T17:55:13.368Z,99229.53
2022-08-11T17:58:34.789Z,99227.28
2022-08-11T18:01:39.852Z,99231.97
2022-08-11T18:04:44.736Z,99234.63
2022-08-11T18:08:07.177Z,99227.13
2022-08-11T18:12:10.818Z,99232.25
2022-08-11T18:15:12.030Z,99238.72
2022-08-11T18:18:32.308Z,99241.06
2022-08-11T18:22:08.291Z,99239.84
2022-08-11T18:25:45.249Z,99244.25
2022-08-11T18:29:10.208Z,99255.56
2022-08-11T18:32:49.029Z,99244.28
2022-08-11T18:36:17.671Z,99247.69
2022-08-11T18:39:40.732Z,99254.03
2022-08-11T18:43:04.140Z,99256.69
2022-08-11T18:46:27.283Z,99262.03
2022-08-11T18:50:02.387Z,99261.88
2022-08-11T18:53:26.015Z,99261.69
2022-08-11T18:56:48.407Z,99260.44
2022-08-11T19:00:11.770Z,99264.13
2022-08-11T19:03:43.394Z,99267.25
2022-08-11T19:07:17.397Z,99275.19
2022-08-11T19:10:41.955Z,99270.91
2022-08-11T19:14:04.096Z,99262.13
2022-08-11T19:17:44.746Z,99267.66
2022-08-11T19:21:09.106Z,99264.75
2022-08-11T19:24:32.630Z,99260.66
2022-08-11T19:27:53.515Z,99265.78
2022-08-11T19:31:15.530Z,99271.00
2022-08-11T19:34:39.285Z,99262.75
2022-08-11T19:38:01.765Z,99263.94
2022-08-11T19:41:56.171Z,99264.31
2022-08-11T19:45:04.427Z,99267.94
2022-08-11T19:48:32.771Z,99269.41
2022-08-11T19:51:55.582Z,99275.97
2022-08-11T19:55:16.679Z,99274.44
2022-08-11T19:58:37.282Z,99276.19
2022-08-11T20:02:12.870Z,99278.19
2022-08-11T20:05:34.735Z,99273.13
2022-08-11T20:09:00.254Z,99278.44
2022-08-11T20:12:24.221Z,99286.88
2022-08-11T20:15:46.592Z,99289.47
2022-08-11T20:19:10.040Z,99281.44
2022-08-11T20:22:33.034Z,99289.06
2022-08-11T20:25:59.156Z,99283.78
2022-08-11T20:29:26.083Z,99290.31
2022-08-11T20:32:47.038Z,99288.53
2022-08-11T20:36:08.680Z,99284.59
2022-08-11T20:39:30.023Z,99294.72
2022-08-11T20:42:53.931Z,99298.53
2022-08-11T20:46:14.588Z,99295.34
2022-08-11T20:49:45.301Z,99298.34
2022-08-11T20:53:14.206Z,99303.72
2022-08-11T20:56:38.330Z,99299.22
2022-08-11T21:00:02.628Z,99310.09
2022-08-11T21:03:35.915Z,99304.84
2022-08-11T21:06:58.096Z,99305.22
2022-08-11T21:10:20.062Z,99308.75
2022-08-11T21:13:51.414Z,99324.66
2022-08-11T21:17:27.699Z,99314.47
2022-08-11T21:20:50.679Z,99320.38
2022-08-11T21:24:13.460Z,99324.28
2022-08-11T21:27:38.455Z,99327.59
2022-08-11T21:30:58.717Z,99332.16
2022-08-11T21:34:19.827Z,99334.84
2022-08-11T21:37:41.566Z,99332.16
2022-08-11T21:41:03.809Z,99334.56
2022-08-11T21:44:25.491Z,99330.88
2022-08-11T21:47:47.342Z,99337.59
2022-08-11T21:51:07.855Z,99342.00
2022-08-11T21:54:29.635Z,99339.38
2022-08-11T21:57:50.675Z,99347.19
2022-08-11T22:01:11.980Z,99342.22
2022-08-11T22:04:33.003Z,99347.25
2022-08-11T22:07:53.289Z,99345.22
2022-08-11T22:11:14.291Z,99339.66
2022-08-11T22:14:34.783Z,99337.44
2022-08-11T22:17:58.049Z,99325.50
2022-08-11T22:22:02.524Z,99326.81
2022-08-11T22:25:00.400Z,99327.31
2022-08-11T22:28:20.840Z,99339.09
2022-08-11T22:31:41.651Z,99334.75
2022-08-11T22:35:02.799Z,99330.91
2022-08-11T22:38:23.666Z,99340.06
2022-08-11T22:41:44.364Z,99340.28
2022-08-11T22:45:04.598Z,99342.16
2022-08-11T22:48:27.642Z,99342.16
2022-08-11T22:51:48.362Z,99333.44
2022-08-11T22:55:09.960Z,99335.53
2022-08-11T22:58:32.497Z,99339.94
2022-08-11T23:01:55.461Z,99341.06
2022-08-11T23:05:17.999Z,99337.56
2022-08-11T23:08:39.560Z,99338.38
2022-08-11T23:12:06.730Z,99347.28
2022-08-11T23:15:29.163Z,99347.69
2022-08-11T23:18:49.762Z,99344.81
2022-08-11T23:22:10.315Z,99345.03
2022-08-11T23:25:30.769Z,99340.97
2022-08-11T23:28:52.041Z,99338.13
2022-08-11T23:32:12.955Z,99340.00
2022-08-11T23:35:39.211Z,99334.19
2022-08-11T23:39:12.167Z,99338.81
2022-08-11T23:42:32.280Z,99334.66
2022-08-11T23:45:56.787Z,99333.84
2022-08-11T23:49:22.381Z,99330.97
2022-08-11T23:52:45.379Z,99330.16
2022-08-11T23:56:05.635Z,99329.13
2022-08-11T23:59:26.735Z,99325.41
